Time;durP1;ratioP1;P1;durP2;ratioP2;P2;SDS_P1;SDS_P2;PMS_P1;PMS_P2;Temp;Humidity;BMP_temperature;BMP_pressure;BME280_temperature;BME280_humidity;BME280_pressure;Samples;Min_cycle;Max_cycle;Signal;HPM_P1;HPM_P2
2022/03/09 00:01:41;;;;;;;15.93;7.30;;;1.60;99.90;;;;;;5056541;28;20471;-82
2022/03/09 00:04:08;;;;;;;11.00;6.80;;;1.60;99.90;;;;;;5060266;28;20472;-82
2022/03/09 00:06:34;;;;;;;13.07;6.87;;;1.60;99.90;;;;;;5061271;28;20533;-81
2022/03/09 00:09:01;;;;;;;11.30;7.17;;;1.50;99.90;;;;;;5061116;28;20474;-83
2022/03/09 00:11:28;;;;;;;11.27;5.87;;;1.50;99.90;;;;;;5060658;28;20451;-82
2022/03/09 00:13:55;;;;;;;11.20;6.07;;;1.50;99.90;;;;;;5060102;28;20478;-82
2022/03/09 00:16:22;;;;;;;10.70;5.63;;;1.50;99.90;;;;;;5060269;28;20426;-83
2022/03/09 00:18:50;;;;;;;12.97;7.13;;;1.40;99.90;;;;;;5060892;28;20422;-83
2022/03/09 00:21:16;;;;;;;10.10;6.57;;;1.40;99.90;;;;;;5060609;28;20475;-83
2022/03/09 00:23:43;;;;;;;10.00;6.63;;;1.40;99.90;;;;;;5059555;28;20448;-81
2022/03/09 00:26:10;;;;;;;13.40;8.00;;;1.40;99.90;;;;;;5059627;28;20539;-81
2022/03/09 00:28:37;;;;;;;11.80;6.30;;;1.30;99.90;;;;;;5061540;28;20851;-82
2022/03/09 00:31:04;;;;;;;13.95;7.43;;;1.20;99.90;;;;;;5059948;28;20448;-83
2022/03/09 00:33:31;;;;;;;13.10;6.97;;;1.30;99.90;;;;;;5060396;28;20215;-83
2022/03/09 00:35:59;;;;;;;13.83;7.97;;;1.20;99.90;;;;;;5060596;28;20513;-82
2022/03/09 00:38:26;;;;;;;11.03;6.57;;;1.20;99.90;;;;;;5060903;28;20456;-82
2022/03/09 00:40:53;;;;;;;8.80;6.03;;;1.20;99.90;;;;;;5060370;28;20492;-82
2022/03/09 00:43:19;;;;;;;13.48;7.82;;;1.10;99.90;;;;;;5059993;28;20201;-81
2022/03/09 00:45:46;;;;;;;12.30;7.27;;;1.10;99.90;;;;;;5055258;28;20433;-81
2022/03/09 00:48:13;;;;;;;11.20;7.60;;;1.10;99.90;;;;;;5059815;28;20466;-82
2022/03/09 00:50:40;;;;;;;9.67;6.00;;;1.10;99.90;;;;;;5059723;28;20809;-82
2022/03/09 00:53:08;;;;;;;11.17;5.90;;;1.00;99.90;;;;;;5059488;28;20463;-83
2022/03/09 00:55:35;;;;;;;11.77;7.85;;;1.00;99.90;;;;;;5058451;28;20935;-81
2022/03/09 00:58:02;;;;;;;11.90;6.72;;;1.00;99.90;;;;;;5060272;28;20194;-82
2022/03/09 01:00:28;;;;;;;13.23;8.30;;;0.90;99.90;;;;;;5059903;28;20216;-81
2022/03/09 01:02:55;;;;;;;11.00;6.85;;;0.90;99.90;;;;;;5059662;28;20390;-81
2022/03/09 01:05:22;;;;;;;11.30;7.32;;;0.90;99.90;;;;;;5060290;28;20224;-82
2022/03/09 01:07:49;;;;;;;11.20;6.77;;;0.80;99.90;;;;;;5061693;28;20219;-82
2022/03/09 01:10:17;;;;;;;12.93;6.97;;;0.80;99.90;;;;;;5041690;28;20449;-82
2022/03/09 01:12:45;;;;;;;11.13;6.70;;;0.80;99.90;;;;;;5045070;28;20219;-84
2022/03/09 01:15:12;;;;;;;10.85;6.78;;;0.80;99.90;;;;;;5059338;28;20537;-81
2022/03/09 01:17:39;;;;;;;11.77;7.30;;;0.70;99.90;;;;;;5061746;28;20212;-82
2022/03/09 01:20:07;;;;;;;10.18;5.95;;;0.70;99.90;;;;;;5061261;28;20456;-81
2022/03/09 01:22:35;;;;;;;10.30;6.57;;;0.70;99.90;;;;;;5060245;28;20204;-82
2022/03/09 01:25:02;;;;;;;14.17;8.20;;;0.70;99.90;;;;;;5059227;28;20467;-82
2022/03/09 01:27:30;;;;;;;10.00;6.53;;;0.70;99.90;;;;;;5059811;28;20932;-82
2022/03/09 01:29:57;;;;;;;11.73;6.17;;;0.60;99.90;;;;;;5060229;28;20217;-83
2022/03/09 01:32:24;;;;;;;10.68;6.45;;;0.60;99.90;;;;;;5059538;28;20478;-80
2022/03/09 01:34:51;;;;;;;10.18;5.82;;;0.50;99.90;;;;;;5058369;28;20225;-81
2022/03/09 01:37:18;;;;;;;13.93;6.55;;;0.50;99.90;;;;;;5059916;28;20219;-81
2022/03/09 01:39:45;;;;;;;12.03;6.00;;;0.50;99.90;;;;;;5058689;28;20204;-82
2022/03/09 01:42:12;;;;;;;11.55;7.32;;;0.50;99.90;;;;;;5060019;28;20459;-82
2022/03/09 01:44:40;;;;;;;9.43;6.00;;;0.50;99.90;;;;;;5058956;28;20224;-82
2022/03/09 01:47:07;;;;;;;11.03;6.50;;;0.50;99.90;;;;;;5062388;28;20216;-82
2022/03/09 01:49:34;;;;;;;11.27;7.00;;;0.50;99.90;;;;;;5061269;28;20452;-82
2022/03/09 01:52:02;;;;;;;11.32;6.15;;;0.50;99.90;;;;;;5060593;28;20991;-81
2022/03/09 01:54:30;;;;;;;10.43;5.70;;;0.50;99.90;;;;;;5060827;28;20228;-82
2022/03/09 01:56:58;;;;;;;10.82;7.65;;;0.50;99.90;;;;;;5060994;28;20202;-83
2022/03/09 01:59:26;;;;;;;10.38;6.00;;;0.40;99.90;;;;;;5061826;28;20219;-82
2022/03/09 02:01:55;;;;;;;11.15;6.40;;;0.50;99.90;;;;;;5060583;28;20194;-81
2022/03/09 02:04:22;;;;;;;12.57;6.93;;;0.40;99.90;;;;;;5059659;28;20609;-81
2022/03/09 02:06:49;;;;;;;11.68;5.95;;;0.40;99.90;;;;;;5060781;28;20287;-82
2022/03/09 02:12:00;;;;;;;10.43;5.68;;;0.40;99.90;;;;;;5060495;28;20257;-83
2022/03/09 02:14:32;;;;;;;10.02;6.30;;;0.40;99.90;;;;;;5060347;28;20319;-82
2022/03/09 02:17:03;;;;;;;9.73;5.53;;;0.40;99.90;;;;;;5055017;28;20295;-82
2022/03/09 02:19:30;;;;;;;9.47;5.60;;;0.40;99.90;;;;;;5061288;28;20216;-81
2022/03/09 02:22:03;;;;;;;11.60;5.53;;;0.40;99.90;;;;;;5060960;28;20464;-82
2022/03/09 02:24:32;;;;;;;9.40;5.28;;;0.40;99.90;;;;;;5060113;28;20240;-82
2022/03/09 02:26:59;;;;;;;7.88;5.38;;;0.40;99.90;;;;;;5060003;28;20200;-83
2022/03/09 02:29:26;;;;;;;10.20;5.45;;;0.40;99.90;;;;;;5060752;28;20209;-81
2022/03/09 02:31:53;;;;;;;8.60;5.82;;;0.40;99.90;;;;;;5061184;28;20292;-83
2022/03/09 02:34:20;;;;;;;8.55;5.60;;;0.30;99.90;;;;;;5065709;28;20225;-80
2022/03/09 02:36:46;;;;;;;9.75;5.47;;;0.30;99.90;;;;;;5068403;28;20210;-78
2022/03/09 02:39:13;;;;;;;8.90;5.35;;;0.30;99.90;;;;;;5069446;28;20208;-82
2022/03/09 02:41:41;;;;;;;7.13;5.05;;;0.30;99.90;;;;;;5063699;28;20566;-83
2022/03/09 02:44:08;;;;;;;9.67;6.57;;;0.30;99.90;;;;;;5060193;28;20232;-82
2022/03/09 02:46:35;;;;;;;9.68;5.70;;;0.30;99.90;;;;;;5058812;28;20451;-80
2022/03/09 02:49:02;;;;;;;7.47;4.90;;;0.30;99.90;;;;;;5040425;28;20212;-79
2022/03/09 02:51:28;;;;;;;10.50;5.60;;;0.30;99.90;;;;;;5058398;28;20612;-82
2022/03/09 02:53:55;;;;;;;7.60;5.38;;;0.30;99.90;;;;;;5059438;28;20232;-82
2022/03/09 02:56:22;;;;;;;9.17;5.63;;;0.30;99.90;;;;;;5060266;28;20208;-81
2022/03/09 02:58:50;;;;;;;8.45;5.35;;;0.30;99.90;;;;;;5060688;28;20468;-81
2022/03/09 03:01:18;;;;;;;7.13;4.93;;;0.30;99.90;;;;;;5059671;28;20277;-82
2022/03/09 03:03:45;;;;;;;12.10;6.30;;;0.30;99.90;;;;;;5059853;28;20207;-82
2022/03/09 03:06:13;;;;;;;8.38;5.07;;;0.30;99.90;;;;;;5061229;28;20216;-80
2022/03/09 03:08:41;;;;;;;7.72;5.30;;;0.30;99.90;;;;;;5060596;28;20205;-81
2022/03/09 03:11:10;;;;;;;12.98;4.35;;;0.30;99.90;;;;;;5060322;28;20212;-81
2022/03/09 03:13:38;;;;;;;7.57;4.47;;;0.30;99.90;;;;;;5060299;28;20291;-81
2022/03/09 03:16:06;;;;;;;8.30;5.38;;;0.30;99.90;;;;;;5060122;28;20197;-82
2022/03/09 03:18:33;;;;;;;8.85;5.03;;;0.30;99.90;;;;;;5060824;28;20274;-83
2022/03/09 03:21:02;;;;;;;8.98;4.72;;;0.30;99.90;;;;;;5060501;28;20211;-82
2022/03/09 03:23:33;;;;;;;8.00;4.60;;;0.30;99.90;;;;;;5060228;28;20652;-83
2022/03/09 03:26:00;;;;;;;7.97;3.70;;;0.30;99.90;;;;;;5059779;28;20221;-80
2022/03/09 03:28:27;;;;;;;8.07;4.18;;;0.40;99.90;;;;;;5060749;28;20203;-80
2022/03/09 03:30:54;;;;;;;8.18;5.03;;;0.30;99.90;;;;;;5061272;28;20580;-82
2022/03/09 03:33:22;;;;;;;10.32;4.18;;;0.30;99.90;;;;;;5059077;28;20239;-82
2022/03/09 03:35:51;;;;;;;8.65;4.78;;;0.30;99.90;;;;;;5060369;28;20450;-82
2022/03/09 03:38:18;;;;;;;6.85;4.63;;;0.30;99.90;;;;;;5057463;28;20204;-84
2022/03/09 03:40:45;;;;;;;6.78;4.20;;;0.30;99.90;;;;;;5057192;28;20579;-82
2022/03/09 03:43:12;;;;;;;7.15;4.18;;;0.30;99.90;;;;;;5057616;28;20289;-82
2022/03/09 03:45:39;;;;;;;8.18;4.97;;;0.30;99.90;;;;;;5057869;28;20239;-81
2022/03/09 03:48:06;;;;;;;8.25;4.65;;;0.30;99.90;;;;;;5057934;28;20204;-81
2022/03/09 03:50:35;;;;;;;7.13;4.63;;;0.30;99.90;;;;;;5057659;28;20203;-80
2022/03/09 03:53:01;;;;;;;9.05;5.07;;;0.30;99.90;;;;;;5057713;28;20222;-81
2022/03/09 03:55:28;;;;;;;8.30;4.00;;;0.30;99.90;;;;;;5057763;28;20223;-82
2022/03/09 03:57:55;;;;;;;6.15;4.18;;;0.20;99.90;;;;;;5057486;28;20208;-82
2022/03/09 04:00:23;;;;;;;9.07;4.93;;;0.20;99.90;;;;;;5057888;28;20205;-81
2022/03/09 04:02:50;;;;;;;8.13;5.05;;;0.20;99.90;;;;;;5057110;28;20247;-81
2022/03/09 04:05:16;;;;;;;7.55;4.72;;;0.20;99.90;;;;;;5056749;28;20224;-81
2022/03/09 04:07:45;;;;;;;6.65;4.20;;;0.20;99.90;;;;;;5057966;28;20647;-82
2022/03/09 04:10:12;;;;;;;7.50;4.72;;;0.20;99.90;;;;;;5057757;28;20204;-80
2022/03/09 04:12:38;;;;;;;9.60;5.35;;;0.20;99.90;;;;;;5056966;28;20226;-81
2022/03/09 04:15:06;;;;;;;10.35;4.43;;;0.20;99.90;;;;;;5056571;28;20594;-80
2022/03/09 04:17:43;;;;;;;12.82;4.88;;;0.20;99.90;;;;;;5057523;28;20209;-80
2022/03/09 04:20:11;;;;;;;7.97;3.97;;;0.20;99.90;;;;;;5057657;28;20285;-79
2022/03/09 04:22:38;;;;;;;9.68;4.80;;;0.20;99.90;;;;;;5058472;28;20215;-80
2022/03/09 04:25:08;;;;;;;8.27;4.63;;;0.20;99.90;;;;;;5057052;28;20244;-82
2022/03/09 04:27:35;;;;;;;6.97;4.10;;;0.20;99.90;;;;;;5058489;28;20224;-81
2022/03/09 04:30:03;;;;;;;8.18;4.78;;;0.30;99.90;;;;;;5056103;28;20268;-81
2022/03/09 04:32:29;;;;;;;9.57;5.05;;;0.30;99.90;;;;;;5037571;28;20293;-81
2022/03/09 04:34:56;;;;;;;7.25;3.97;;;0.30;99.90;;;;;;5045725;28;20315;-83
2022/03/09 04:37:23;;;;;;;10.05;5.32;;;0.40;99.90;;;;;;5058304;28;20199;-81
2022/03/09 04:39:50;;;;;;;6.18;4.03;;;0.40;99.90;;;;;;5057480;28;20207;-83
2022/03/09 04:42:18;;;;;;;7.73;5.00;;;0.40;99.90;;;;;;5057577;28;20208;-81
2022/03/09 04:44:45;;;;;;;6.72;4.50;;;0.50;99.90;;;;;;5057794;28;20450;-81
2022/03/09 04:47:11;;;;;;;8.35;4.70;;;0.50;99.90;;;;;;5057897;28;20200;-81
2022/03/09 04:49:38;;;;;;;8.02;4.32;;;0.40;99.90;;;;;;5058837;28;20213;-82
2022/03/09 04:52:06;;;;;;;6.50;3.53;;;0.40;99.90;;;;;;5066578;28;20223;-80
2022/03/09 04:54:33;;;;;;;8.95;5.22;;;0.40;99.90;;;;;;5064989;28;20239;-84
2022/03/09 04:56:59;;;;;;;5.10;3.92;;;0.50;99.90;;;;;;5063619;28;20194;-80
2022/03/09 04:59:28;;;;;;;7.57;4.28;;;0.50;99.90;;;;;;5067724;28;20219;-81
2022/03/09 05:01:55;;;;;;;7.30;4.55;;;0.50;99.90;;;;;;5067167;28;20264;-81
2022/03/09 05:04:21;;;;;;;5.68;3.83;;;0.40;99.90;;;;;;5064925;28;20251;-81
2022/03/09 05:06:48;;;;;;;7.95;4.40;;;0.40;99.90;;;;;;5062973;28;20277;-82
2022/03/09 05:09:15;;;;;;;7.40;4.32;;;0.40;99.90;;;;;;5061497;28;20206;-82
2022/03/09 05:11:42;;;;;;;6.15;4.03;;;0.40;99.90;;;;;;5060647;28;20212;-84
2022/03/09 05:14:09;;;;;;;8.88;4.45;;;0.40;99.90;;;;;;5061218;28;20224;-83
2022/03/09 05:16:37;;;;;;;6.75;4.47;;;0.40;99.90;;;;;;5062809;28;20206;-84
2022/03/09 05:19:04;;;;;;;6.47;4.15;;;0.40;99.90;;;;;;5061622;28;20609;-85
2022/03/09 05:21:30;;;;;;;9.70;4.40;;;0.30;99.90;;;;;;5063208;28;20207;-82
2022/03/09 05:23:57;;;;;;;7.47;4.32;;;0.40;99.90;;;;;;5061700;28;20218;-83
2022/03/09 05:26:24;;;;;;;6.78;4.60;;;0.40;99.90;;;;;;5062052;28;20229;-82
2022/03/09 05:28:51;;;;;;;7.25;5.00;;;0.40;99.90;;;;;;5062218;28;20218;-83
2022/03/09 05:31:18;;;;;;;6.93;4.45;;;0.40;99.90;;;;;;5062266;28;20209;-82
2022/03/09 05:33:46;;;;;;;6.63;4.20;;;0.40;99.90;;;;;;5061375;28;20221;-83
2022/03/09 05:36:13;;;;;;;8.00;4.20;;;0.40;99.90;;;;;;5062062;28;20204;-80
2022/03/09 05:38:40;;;;;;;8.32;4.65;;;0.40;99.90;;;;;;5061926;28;20290;-82
2022/03/09 05:41:07;;;;;;;6.93;4.10;;;0.40;99.90;;;;;;5061995;28;20216;-82
2022/03/09 05:43:34;;;;;;;7.55;4.95;;;0.40;99.90;;;;;;5061919;28;20265;-79
2022/03/09 05:46:01;;;;;;;7.28;3.92;;;0.50;99.90;;;;;;5061638;28;20273;-81
2022/03/09 05:48:28;;;;;;;8.32;4.80;;;0.40;99.90;;;;;;5062327;28;20206;-82
2022/03/09 05:50:56;;;;;;;7.45;4.63;;;0.30;99.90;;;;;;5061915;28;20678;-83
2022/03/09 05:53:23;;;;;;;7.78;4.32;;;0.40;99.90;;;;;;5060595;28;20214;-81
2022/03/09 05:55:50;;;;;;;7.22;4.38;;;0.40;99.90;;;;;;5061481;28;20252;-80
2022/03/09 05:58:17;;;;;;;8.02;4.65;;;0.30;99.90;;;;;;5061678;28;20228;-82
2022/03/09 06:00:43;;;;;;;7.72;4.45;;;0.40;99.90;;;;;;5061342;28;20211;-82
2022/03/09 06:03:10;;;;;;;6.10;4.30;;;0.50;99.90;;;;;;5062427;28;20265;-80
2022/03/09 06:05:37;;;;;;;7.50;4.20;;;0.50;99.90;;;;;;5061562;28;20230;-82
2022/03/09 06:08:05;;;;;;;8.80;4.20;;;0.60;99.90;;;;;;5060609;28;20199;-82
2022/03/09 06:10:32;;;;;;;7.50;4.47;;;0.60;99.90;;;;;;5062885;28;20295;-82
2022/03/09 06:13:02;;;;;;;8.50;5.20;;;0.70;99.90;;;;;;5060965;28;20483;-84
2022/03/09 06:15:29;;;;;;;7.93;4.55;;;0.70;99.90;;;;;;5062569;28;20229;-82
2022/03/09 06:17:56;;;;;;;6.97;3.60;;;0.80;99.90;;;;;;5063543;28;20204;-82
2022/03/09 06:20:25;;;;;;;6.13;3.67;;;0.80;99.90;;;;;;5060342;28;20216;-81
2022/03/09 06:22:52;;;;;;;6.50;4.20;;;0.90;99.90;;;;;;5060309;28;20231;-82
2022/03/09 06:25:20;;;;;;;7.68;3.90;;;0.80;99.90;;;;;;5058469;28;20232;-83
2022/03/09 06:27:49;;;;;;;9.32;4.65;;;0.80;99.90;;;;;;5060296;28;20208;-81
2022/03/09 06:30:16;;;;;;;8.65;4.82;;;0.80;99.90;;;;;;5059234;28;20197;-79
2022/03/09 06:32:44;;;;;;;7.80;5.22;;;0.90;99.90;;;;;;5059284;28;20217;-78
2022/03/09 06:35:11;;;;;;;7.47;4.78;;;0.90;99.90;;;;;;5058740;28;20289;-78
2022/03/09 06:37:38;;;;;;;10.52;4.60;;;1.00;99.90;;;;;;5059358;28;20197;-77
2022/03/09 06:40:06;;;;;;;7.05;4.95;;;1.10;99.90;;;;;;5059326;28;20202;-80
2022/03/09 06:42:35;;;;;;;8.68;4.20;;;1.10;99.90;;;;;;5060187;28;20208;-79
2022/03/09 06:45:03;;;;;;;7.75;4.10;;;1.20;99.90;;;;;;5057986;28;20233;-78
2022/03/09 06:47:30;;;;;;;7.40;4.70;;;1.20;99.90;;;;;;5058783;28;20202;-80
2022/03/09 06:49:57;;;;;;;8.63;4.65;;;1.20;99.90;;;;;;5059141;28;20648;-79
2022/03/09 06:52:24;;;;;;;15.53;5.10;;;1.30;99.90;;;;;;5068655;28;20217;-82
2022/03/09 06:55:26;;;;;;;12.80;4.60;;;1.50;99.90;;;;;;5065304;28;20479;-84
2022/03/09 06:57:54;;;;;;;7.93;4.45;;;1.60;99.90;;;;;;5052758;28;20478;-81
2022/03/09 07:00:21;;;;;;;8.77;5.03;;;1.70;99.90;;;;;;5057760;28;20205;-83
2022/03/09 07:02:56;;;;;;;9.13;5.33;;;1.80;99.90;;;;;;5065349;28;20439;-81
2022/03/09 07:05:24;;;;;;;8.37;4.63;;;1.90;99.90;;;;;;5064830;28;20470;-82
2022/03/09 07:07:54;;;;;;;5.60;3.83;;;2.10;99.90;;;;;;5061434;28;20448;-82
2022/03/09 07:10:21;;;;;;;11.00;5.27;;;2.30;99.90;;;;;;5066393;28;20471;-82
2022/03/09 07:12:48;;;;;;;6.30;4.53;;;2.40;99.90;;;;;;5066423;28;20511;-82
2022/03/09 07:15:16;;;;;;;9.80;5.13;;;2.60;99.90;;;;;;5064330;28;20475;-82
2022/03/09 07:17:44;;;;;;;8.20;5.03;;;3.00;99.90;;;;;;5069333;28;20583;-81
2022/03/09 07:20:12;;;;;;;10.50;4.73;;;3.20;99.90;;;;;;5068184;28;20818;-82
2022/03/09 07:22:39;;;;;;;8.63;5.10;;;3.30;99.90;;;;;;5064390;28;20503;-82
2022/03/09 07:25:07;;;;;;;10.33;4.93;;;3.30;99.90;;;;;;5067955;28;20506;-82
2022/03/09 07:27:34;;;;;;;8.40;4.20;;;3.40;99.90;;;;;;5064417;28;20452;-82
2022/03/09 07:30:01;;;;;;;7.40;4.90;;;3.50;99.90;;;;;;5063477;28;20454;-81
2022/03/09 07:32:29;;;;;;;7.10;4.50;;;3.70;99.90;;;;;;5063076;28;20951;-83
2022/03/09 07:34:56;;;;;;;9.27;5.43;;;3.90;99.90;;;;;;5063288;28;20523;-83
2022/03/09 07:37:23;;;;;;;10.67;5.00;;;4.10;99.90;;;;;;5060474;28;20460;-83
2022/03/09 07:39:49;;;;;;;6.73;4.63;;;4.30;99.90;;;;;;5063447;28;20441;-82
2022/03/09 07:42:16;;;;;;;8.30;4.23;;;4.30;99.90;;;;;;5063362;28;20468;-82
2022/03/09 07:44:43;;;;;;;7.27;4.40;;;4.50;99.90;;;;;;5063394;28;20546;-83
2022/03/09 07:47:10;;;;;;;8.80;4.90;;;4.60;99.90;;;;;;5067052;28;20445;-83
2022/03/09 07:49:38;;;;;;;6.97;4.70;;;4.80;99.90;;;;;;5069965;28;20421;-84
2022/03/09 07:52:06;;;;;;;6.80;5.10;;;4.80;99.90;;;;;;5069246;28;20509;-83
2022/03/09 07:54:33;;;;;;;9.23;4.90;;;5.00;99.90;;;;;;5060990;28;20487;-82
2022/03/09 07:57:19;;;;;;;11.00;6.60;;;5.00;99.90;;;;;;5061726;28;20452;-82
2022/03/09 07:59:46;;;;;;;8.17;5.00;;;5.20;99.90;;;;;;5062591;28;20478;-82
2022/03/09 08:02:13;;;;;;;6.90;4.43;;;5.30;99.90;;;;;;5062063;28;20457;-82
2022/03/09 08:04:44;;;;;;;9.17;4.70;;;5.50;99.90;;;;;;5058755;28;20472;-81
2022/03/09 08:07:10;;;;;;;8.63;4.60;;;5.60;99.90;;;;;;5056817;28;20461;-81
2022/03/09 08:09:47;;;;;;;8.63;4.87;;;5.80;99.90;;;;;;5061197;28;21019;-82
2022/03/09 08:12:13;;;;;;;9.53;5.30;;;5.90;99.90;;;;;;5061881;28;20450;-82
2022/03/09 08:14:40;;;;;;;14.00;5.57;;;6.10;99.90;;;;;;5060887;28;20727;-83
2022/03/09 08:17:10;;;;;;;7.77;4.93;;;6.30;99.90;;;;;;5055776;28;20531;-82
2022/03/09 08:19:37;;;;;;;7.90;5.30;;;6.60;99.90;;;;;;5062344;28;20452;-82
2022/03/09 08:22:05;;;;;;;10.97;5.27;;;6.90;99.90;;;;;;5061934;28;20457;-82
2022/03/09 08:24:33;;;;;;;10.07;5.60;;;7.30;99.90;;;;;;5062520;28;20479;-82
2022/03/09 08:27:00;;;;;;;7.37;5.17;;;7.60;99.90;;;;;;5061540;28;21035;-82
2022/03/09 08:29:27;;;;;;;9.93;5.10;;;7.90;99.90;;;;;;5063564;28;20463;-83
2022/03/09 08:31:57;;;;;;;6.70;4.87;;;8.20;99.90;;;;;;5061417;28;20463;-81
2022/03/09 08:34:24;;;;;;;6.20;4.50;;;8.60;99.90;;;;;;5059453;28;20522;-82
2022/03/09 08:36:50;;;;;;;7.30;4.80;;;8.80;99.90;;;;;;5059976;28;20472;-81
2022/03/09 08:39:19;;;;;;;10.80;5.67;;;9.30;99.90;;;;;;5060423;28;20455;-83
2022/03/09 08:41:47;;;;;;;10.80;5.33;;;10.10;99.00;;;;;;5059257;28;20492;-82
2022/03/09 08:44:20;;;;;;;7.40;4.90;;;11.10;98.80;;;;;;5063590;28;20455;-81
2022/03/09 08:46:47;;;;;;;7.60;4.97;;;11.50;93.50;;;;;;5060737;28;20467;-80
2022/03/09 08:49:14;;;;;;;8.27;4.57;;;11.60;87.50;;;;;;5065028;28;20447;-82
2022/03/09 08:51:45;;;;;;;10.00;4.90;;;11.30;88.20;;;;;;5060158;28;20459;-82
2022/03/09 08:54:12;;;;;;;6.93;4.80;;;11.50;84.90;;;;;;5060160;28;20697;-82
2022/03/09 08:56:40;;;;;;;6.50;4.73;;;12.30;80.20;;;;;;5059804;28;20463;-82
2022/03/09 08:59:07;;;;;;;8.03;4.97;;;13.20;76.70;;;;;;5058564;28;20534;-83
2022/03/09 09:01:34;;;;;;;7.67;4.90;;;13.90;72.20;;;;;;5060439;28;20445;-81
2022/03/09 09:04:01;;;;;;;6.20;4.83;;;14.50;66.70;;;;;;5060483;28;20472;-83
2022/03/09 09:06:29;;;;;;;6.47;5.03;;;14.40;61.60;;;;;;5054857;28;20446;-83
2022/03/09 09:08:55;;;;;;;6.67;4.63;;;14.10;60.60;;;;;;5040179;28;20469;-82
2022/03/09 09:11:22;;;;;;;6.57;4.67;;;14.30;58.90;;;;;;5040615;28;20464;-82
2022/03/09 09:13:50;;;;;;;9.70;5.40;;;15.00;58.00;;;;;;5057773;28;20557;-81
2022/03/09 09:16:17;;;;;;;6.33;4.90;;;15.00;57.00;;;;;;5044884;28;20462;-83
2022/03/09 09:18:44;;;;;;;6.97;5.03;;;15.40;55.50;;;;;;5061180;28;20841;-82
2022/03/09 09:21:11;;;;;;;7.27;5.10;;;16.20;56.20;;;;;;5059664;28;20458;-83
2022/03/09 09:23:39;;;;;;;7.43;5.60;;;17.30;55.20;;;;;;5060643;28;20466;-83
2022/03/09 09:26:06;;;;;;;5.77;4.70;;;18.30;55.20;;;;;;5061169;28;20493;-85
2022/03/09 09:28:33;;;;;;;6.50;5.17;;;18.80;51.20;;;;;;5059042;28;20545;-82
2022/03/09 09:31:01;;;;;;;6.13;4.57;;;19.90;51.10;;;;;;5058106;28;20466;-81
2022/03/09 09:33:28;;;;;;;8.40;5.57;;;20.80;48.40;;;;;;5058317;28;20454;-83
2022/03/09 09:35:55;;;;;;;7.73;5.10;;;22.30;47.40;;;;;;5055951;28;20489;-81
2022/03/09 09:38:22;;;;;;;7.03;5.60;;;22.50;44.90;;;;;;5041000;28;20474;-81
2022/03/09 09:40:51;;;;;;;7.30;4.97;;;23.10;41.00;;;;;;5053776;28;20452;-84
2022/03/09 09:43:18;;;;;;;6.73;4.90;;;23.40;39.30;;;;;;5060056;28;20454;-82
2022/03/09 09:45:45;;;;;;;6.63;5.23;;;22.90;39.70;;;;;;5060566;28;20751;-84
2022/03/09 09:48:14;;;;;;;8.10;5.67;;;23.50;38.00;;;;;;5059899;28;20450;-84
2022/03/09 09:50:42;;;;;;;6.60;5.10;;;22.00;37.00;;;;;;5061463;28;20456;-84
2022/03/09 09:53:11;;;;;;;6.50;5.90;;;23.30;37.90;;;;;;5061381;28;20766;-81
2022/03/09 09:55:46;;;;;;;6.90;5.50;;;23.20;37.00;;;;;;5060120;28;20494;-82
2022/03/09 09:58:13;;;;;;;6.73;5.40;;;22.60;36.40;;;;;;5062056;28;20511;-82
2022/03/09 10:00:41;;;;;;;6.57;5.73;;;23.80;37.10;;;;;;5072252;28;20448;-83
2022/03/09 10:03:07;;;;;;;5.33;4.83;;;25.00;37.40;;;;;;5067425;28;20874;-84
2022/03/09 10:05:36;;;;;;;5.90;5.30;;;26.60;36.10;;;;;;5061799;28;20472;-81
2022/03/09 10:08:14;;;;;;;6.23;5.63;;;26.80;35.10;;;;;;5061855;28;20448;-81
2022/03/09 10:10:43;;;;;;;6.33;5.00;;;27.90;36.00;;;;;;5059504;28;20447;-85
2022/03/09 10:13:11;;;;;;;6.60;5.67;;;28.00;33.80;;;;;;5059771;28;20452;-84
2022/03/09 10:15:38;;;;;;;6.00;5.37;;;27.60;31.70;;;;;;5061320;28;20552;-84
2022/03/09 10:18:16;;;;;;;7.60;5.90;;;27.10;31.80;;;;;;5060318;28;20444;-82
2022/03/09 10:20:46;;;;;;;5.70;5.20;;;27.30;30.80;;;;;;5060650;28;20448;-82
2022/03/09 10:23:13;;;;;;;6.10;5.50;;;27.70;31.70;;;;;;5060238;28;20462;-82
2022/03/09 10:25:40;;;;;;;6.23;5.60;;;28.40;31.80;;;;;;5058779;28;20484;-84
2022/03/09 10:28:10;;;;;;;7.83;5.90;;;28.50;30.90;;;;;;5060547;28;20455;-84
2022/03/09 10:30:39;;;;;;;6.77;6.00;;;27.60;29.90;;;;;;5057274;28;20456;-83
2022/03/09 10:33:07;;;;;;;8.23;5.87;;;28.20;31.50;;;;;;5056638;28;20453;-83
2022/03/09 10:35:44;;;;;;;6.17;4.93;;;27.80;30.00;;;;;;5059023;28;20468;-82
2022/03/09 10:38:27;;;;;;;6.83;5.90;;;27.30;29.80;;;;;;5055485;28;20543;-81
2022/03/09 10:40:56;;;;;;;6.70;6.00;;;28.70;30.70;;;;;;5055167;28;20455;-82
2022/03/09 10:43:25;;;;;;;7.07;6.37;;;28.70;30.40;;;;;;5058126;28;21011;-82
2022/03/09 10:45:59;;;;;;;7.43;6.50;;;28.50;29.80;;;;;;5054700;28;20487;-83
2022/03/09 10:48:26;;;;;;;6.17;5.50;;;27.00;29.10;;;;;;5057873;28;20458;-83
2022/03/09 10:50:56;;;;;;;6.40;5.80;;;27.50;30.00;;;;;;5059497;28;20448;-82
2022/03/09 10:53:27;;;;;;;6.67;5.87;;;28.10;29.70;;;;;;5059669;28;20448;-83
2022/03/09 10:56:00;;;;;;;6.77;6.00;;;28.60;30.00;;;;;;5060857;28;20474;-82
2022/03/09 10:58:27;;;;;;;8.77;6.13;;;30.50;30.00;;;;;;5059564;28;20462;-82
2022/03/09 11:00:55;;;;;;;6.73;6.03;;;30.60;30.60;;;;;;5059499;28;20462;-83
2022/03/09 11:03:24;;;;;;;6.97;6.27;;;29.30;29.70;;;;;;5058350;28;20523;-83
2022/03/09 11:05:53;;;;;;;7.13;6.43;;;30.10;28.80;;;;;;5059763;28;20487;-84
2022/03/09 11:08:23;;;;;;;6.40;5.80;;;29.70;28.20;;;;;;5060100;28;20528;-84
2022/03/09 11:10:51;;;;;;;7.23;6.07;;;29.40;29.10;;;;;;5058755;28;20448;-83
2022/03/09 11:13:18;;;;;;;8.60;6.57;;;29.40;28.50;;;;;;5057520;28;20456;-85
2022/03/09 11:15:47;;;;;;;7.00;6.30;;;30.60;28.50;;;;;;5055459;28;20468;-84
2022/03/09 11:18:18;;;;;;;9.30;7.20;;;31.10;28.80;;;;;;5058464;28;20449;-84
2022/03/09 11:20:45;;;;;;;7.20;6.60;;;30.80;27.50;;;;;;5057755;28;20471;-84
2022/03/09 11:23:12;;;;;;;7.00;6.30;;;31.40;28.20;;;;;;5056457;28;20555;-85
2022/03/09 11:25:42;;;;;;;6.63;5.90;;;31.20;28.60;;;;;;5056515;28;20571;-84
2022/03/09 11:28:10;;;;;;;6.90;6.20;;;32.20;28.10;;;;;;5055452;28;20436;-84
2022/03/09 11:30:38;;;;;;;7.60;6.90;;;31.40;28.00;;;;;;5057272;28;20448;-83
2022/03/09 11:33:52;;;;;;;6.57;5.67;;;30.40;27.50;;;;;;5056634;28;20452;-82
2022/03/09 11:36:42;;;;;;;6.90;6.20;;;31.60;29.70;;;;;;5040460;28;20492;-84
2022/03/09 11:39:25;;;;;;;7.03;6.33;;;31.70;26.80;;;;;;5051092;28;20462;-85
2022/03/09 11:42:25;;;;;;;7.67;5.40;;;30.90;25.90;;;;;;5058309;28;20443;-84
2022/03/09 11:44:56;;;;;;;7.10;5.77;;;31.20;27.10;;;;;;5054844;28;20523;-84
2022/03/09 11:47:23;;;;;;;7.03;6.33;;;30.60;26.90;;;;;;5054706;28;20831;-84
2022/03/09 11:50:13;;;;;;;7.87;6.27;;;30.00;26.40;;;;;;5056886;28;20454;-85
2022/03/09 11:52:56;;;;;;;9.53;5.70;;;29.60;26.70;;;;;;5033849;28;20462;-82
2022/03/09 11:55:23;;;;;;;6.87;5.70;;;29.50;27.00;;;;;;5052615;28;20499;-84
2022/03/09 11:58:09;;;;;;;6.80;6.13;;;30.40;26.50;;;;;;5056160;28;20444;-82
2022/03/09 12:00:39;;;;;;;9.73;6.50;;;31.80;26.70;;;;;;5057431;28;20452;-84
2022/03/09 12:03:06;;;;;;;8.20;6.20;;;31.60;26.40;;;;;;5059239;28;20448;-83
2022/03/09 12:05:53;;;;;;;6.70;6.00;;;32.50;26.50;;;;;;5059844;28;20483;-83
2022/03/09 12:08:21;;;;;;;8.77;6.30;;;32.90;26.20;;;;;;5049643;28;20964;-82
2022/03/09 12:10:58;;;;;;;6.43;5.83;;;32.70;26.50;;;;;;5060250;28;20471;-84
2022/03/09 12:13:33;;;;;;;6.90;6.30;;;33.00;25.60;;;;;;5060307;28;20447;-83
2022/03/09 12:16:07;;;;;;;6.67;5.97;;;33.10;25.30;;;;;;5058495;28;20983;-85
2022/03/09 12:18:36;;;;;;;7.57;6.70;;;32.90;25.20;;;;;;5059348;28;20500;-83
2022/03/09 12:21:04;;;;;;;7.80;6.47;;;33.40;26.80;;;;;;5056468;28;20465;-83
2022/03/09 12:23:31;;;;;;;8.53;7.10;;;31.10;25.50;;;;;;5059145;28;20444;-84
2022/03/09 12:25:58;;;;;;;7.17;6.50;;;31.30;27.40;;;;;;5058905;28;20488;-84
2022/03/09 12:28:52;;;;;;;6.87;6.23;;;33.00;25.40;;;;;;5056576;28;20463;-84
2022/03/09 12:31:23;;;;;;;6.80;6.20;;;32.70;27.20;;;;;;5027650;28;20448;-85
2022/03/09 12:33:55;;;;;;;7.17;6.47;;;32.60;26.00;;;;;;5058959;28;20435;-84
2022/03/09 12:36:24;;;;;;;7.10;6.50;;;32.80;26.50;;;;;;5057590;28;20469;-82
2022/03/09 12:38:52;;;;;;;7.80;6.20;;;32.40;25.40;;;;;;5059154;28;20443;-84
2022/03/09 12:41:32;;;;;;;7.13;6.53;;;31.70;25.70;;;;;;5060018;28;20448;-84
2022/03/09 12:44:01;;;;;;;7.17;6.57;;;31.20;26.90;;;;;;5059120;28;20463;-83
2022/03/09 12:46:32;;;;;;;7.37;6.77;;;31.70;25.40;;;;;;5059359;28;20483;-82
2022/03/09 12:49:04;;;;;;;7.20;6.60;;;32.00;26.80;;;;;;5056480;28;21206;-84
2022/03/09 12:51:31;;;;;;;7.10;6.40;;;31.30;26.60;;;;;;5057751;28;20989;-82
2022/03/09 12:53:58;;;;;;;6.63;6.03;;;31.00;26.00;;;;;;5056725;28;20467;-81
2022/03/09 12:56:25;;;;;;;6.70;6.00;;;32.20;27.00;;;;;;5059494;28;20450;-84
2022/03/09 12:59:08;;;;;;;8.40;7.60;;;33.10;26.40;;;;;;5058999;28;20450;-85
2022/03/09 13:01:36;;;;;;;6.90;6.30;;;33.00;25.70;;;;;;5057550;28;20442;-84